Time;durP1;ratioP1;P1;durP2;ratioP2;P2;SDS_P1;SDS_P2;PMS_P1;PMS_P2;Temp;Humidity;BMP_temperature;BMP_pressure;BME280_temperature;BME280_humidity;BME280_pressure;Samples;Min_cycle;Max_cycle;Signal;HPM_P1;HPM_P2
2023/06/07 00:17:20;;;;;;;4.03;3.70;;;;;17.10;96843.00;;;;4950318;28;21009;-74
2023/06/07 00:20:12;;;;;;;3.57;3.27;;;;;16.90;96839.00;;;;4965189;28;20247;-74
2023/06/07 00:23:01;;;;;;;4.13;3.53;;;;;16.80;96852.00;;;;4964977;28;20211;-75
2023/06/07 00:25:50;;;;;;;4.37;3.57;;;;;17.00;96850.00;;;;4966351;28;20311;-74
2023/06/07 00:28:39;;;;;;;3.63;3.33;;;;;17.10;96866.00;;;;4965734;28;20200;-74
2023/06/07 00:31:29;;;;;;;7.03;4.40;;;;;17.10;96857.00;;;;4959081;28;20225;-74
2023/06/07 00:34:19;;;;;;;4.17;3.10;;;;;16.90;96852.00;;;;4969899;28;20203;-74
2023/06/07 00:37:08;;;;;;;5.33;3.17;;;;;16.70;96851.00;;;;4969844;28;20207;-74
2023/06/07 00:39:57;;;;;;;3.53;3.23;;;;;16.70;96852.00;;;;4960418;28;20243;-74
2023/06/07 00:42:46;;;;;;;2.90;2.63;;;;;16.50;96847.00;;;;4969666;28;20265;-74
2023/06/07 00:45:35;;;;;;;2.90;2.70;;;;;16.40;96855.00;;;;4969345;28;20206;-74
2023/06/07 00:48:24;;;;;;;3.83;3.00;;;;;16.20;96854.00;;;;4968208;28;20218;-74
2023/06/07 00:51:15;;;;;;;4.97;3.17;;;;;16.40;96854.00;;;;4963639;28;20211;-74
2023/06/07 00:54:07;;;;;;;7.80;3.47;;;;;16.50;96855.00;;;;4968139;28;20266;-75
2023/06/07 00:56:56;;;;;;;5.70;3.50;;;;;16.70;96853.00;;;;4966205;28;20694;-75
2023/06/07 00:59:45;;;;;;;4.13;3.70;;;;;16.80;96858.00;;;;4970490;28;20575;-75
2023/06/07 01:02:35;;;;;;;5.03;4.10;;;;;16.80;96849.00;;;;4961555;28;20704;-75
2023/06/07 01:05:24;;;;;;;5.63;3.30;;;;;16.80;96850.00;;;;4961532;28;20712;-74
2023/06/07 01:08:14;;;;;;;3.77;3.47;;;;;16.80;96846.00;;;;4963968;28;20199;-75
2023/06/07 01:11:03;;;;;;;5.43;3.43;;;;;16.80;96850.00;;;;4966828;28;20214;-75
2023/06/07 01:13:53;;;;;;;4.37;3.77;;;;;16.80;96840.00;;;;4964027;28;20686;-75
2023/06/07 01:16:44;;;;;;;4.23;3.40;;;;;16.70;96843.00;;;;4965547;28;20210;-75
2023/06/07 01:19:36;;;;;;;4.20;3.80;;;;;16.60;96834.00;;;;4967984;28;20220;-73
2023/06/07 01:22:27;;;;;;;5.37;3.50;;;;;16.60;96834.00;;;;4969314;28;20215;-75
2023/06/07 01:25:18;;;;;;;5.37;4.20;;;;;16.60;96844.00;;;;4970175;28;20204;-74
2023/06/07 01:28:07;;;;;;;3.97;3.57;;;;;16.60;96841.00;;;;4975745;28;20210;-75
2023/06/07 01:30:56;;;;;;;4.33;3.93;;;;;16.80;96842.00;;;;4958757;28;20693;-74
2023/06/07 01:33:46;;;;;;;3.60;3.30;;;;;16.80;96841.00;;;;4969221;28;20231;-74
2023/06/07 01:36:36;;;;;;;4.40;3.63;;;;;16.70;96836.00;;;;4967283;28;20206;-74
2023/06/07 01:39:26;;;;;;;4.67;3.67;;;;;16.80;96839.00;;;;4964972;28;20227;-75
2023/06/07 01:42:18;;;;;;;5.13;3.73;;;;;16.60;96839.00;;;;4963627;28;20208;-75
2023/06/07 01:45:07;;;;;;;4.03;3.63;;;;;16.30;96837.00;;;;4968307;28;20234;-74
2023/06/07 01:47:56;;;;;;;4.07;3.67;;;;;16.00;96834.00;;;;4961773;28;20216;-73
2023/06/07 01:50:46;;;;;;;3.93;3.63;;;;;16.00;96829.00;;;;4960550;28;20283;-74
2023/06/07 01:53:36;;;;;;;11.67;3.60;;;;;16.30;96831.00;;;;4966547;28;20233;-74
2023/06/07 01:56:33;;;;;;;5.47;4.77;;;;;16.50;96827.00;;;;4960962;28;20218;-74
2023/06/07 01:59:32;;;;;;;8.97;4.43;;;;;16.50;96822.00;;;;4968824;28;20226;-74
2023/06/07 02:02:28;;;;;;;8.37;4.70;;;;;16.70;96820.00;;;;4963647;28;20219;-75
2023/06/07 02:05:20;;;;;;;8.70;4.53;;;;;16.80;96824.00;;;;4968769;28;20203;-75
2023/06/07 02:08:13;;;;;;;5.73;5.13;;;;;16.80;96819.00;;;;4965809;28;20207;-74
2023/06/07 02:11:03;;;;;;;4.77;4.10;;;;;16.50;96824.00;;;;4957901;28;20200;-74
2023/06/07 02:13:53;;;;;;;3.80;3.40;;;;;16.40;96822.00;;;;4960349;28;20433;-74
2023/06/07 02:16:44;;;;;;;5.47;4.53;;;;;16.50;96822.00;;;;4964609;28;20575;-75
2023/06/07 02:19:34;;;;;;;5.17;3.97;;;;;16.50;96819.00;;;;4953114;28;20236;-74
2023/06/07 02:22:23;;;;;;;4.83;3.70;;;;;16.30;96818.00;;;;4958934;28;20195;-74
2023/06/07 02:25:12;;;;;;;5.20;4.70;;;;;16.10;96811.00;;;;4953543;28;20215;-74
2023/06/07 02:28:02;;;;;;;5.37;4.50;;;;;16.20;96816.00;;;;4967833;28;20237;-75
2023/06/07 02:30:51;;;;;;;4.33;3.73;;;;;16.00;96803.00;;;;4957094;28;20689;-75
2023/06/07 02:33:42;;;;;;;4.57;4.17;;;;;16.10;96812.00;;;;4963793;28;20215;-74
2023/06/07 02:36:33;;;;;;;6.30;4.80;;;;;16.00;96810.00;;;;4961190;28;20203;-75
2023/06/07 02:39:22;;;;;;;4.67;4.23;;;;;16.00;96810.00;;;;4956504;28;20216;-74
2023/06/07 02:42:11;;;;;;;5.07;4.47;;;;;16.20;96808.00;;;;4963183;28;20205;-74
2023/06/07 02:45:01;;;;;;;5.37;4.23;;;;;16.40;96815.00;;;;4962343;28;20211;-75
2023/06/07 02:47:50;;;;;;;3.97;3.57;;;;;16.40;96812.00;;;;4965686;28;20219;-75
2023/06/07 02:50:41;;;;;;;5.90;5.23;;;;;16.50;96815.00;;;;4965870;28;20223;-75
2023/06/07 02:53:30;;;;;;;5.13;4.50;;;;;16.50;96808.00;;;;4958024;28;20688;-74
2023/06/07 02:56:19;;;;;;;5.77;5.07;;;;;16.40;96811.00;;;;4959454;28;20241;-74
2023/06/07 02:59:08;;;;;;;6.63;4.33;;;;;16.60;96811.00;;;;4972620;28;20238;-74
2023/06/07 03:01:57;;;;;;;5.20;4.50;;;;;16.50;96810.00;;;;4968929;28;20223;-75
2023/06/07 03:04:46;;;;;;;4.70;4.30;;;;;16.50;96809.00;;;;4968476;28;20219;-74
2023/06/07 03:07:37;;;;;;;5.40;3.57;;;;;16.50;96808.00;;;;4971975;28;20200;-74
2023/06/07 03:10:26;;;;;;;5.97;4.77;;;;;16.50;96810.00;;;;4967090;28;20629;-75
2023/06/07 03:13:15;;;;;;;6.07;5.47;;;;;16.60;96808.00;;;;4972150;28;20210;-75
2023/06/07 03:16:04;;;;;;;5.37;4.87;;;;;16.60;96812.00;;;;4973033;28;20822;-75
2023/06/07 03:18:53;;;;;;;4.83;4.43;;;;;16.40;96820.00;;;;4969786;28;20735;-75
2023/06/07 03:21:44;;;;;;;7.77;4.57;;;;;16.60;96813.00;;;;4962904;28;20255;-74
2023/06/07 03:24:36;;;;;;;5.10;4.50;;;;;16.50;96815.00;;;;4970892;28;20200;-74
2023/06/07 03:27:27;;;;;;;6.80;4.27;;;;;16.50;96807.00;;;;4974319;28;20676;-74
2023/06/07 03:30:16;;;;;;;7.73;4.53;;;;;16.70;96819.00;;;;4971504;28;20219;-74
2023/06/07 03:33:05;;;;;;;6.80;4.93;;;;;16.70;96817.00;;;;4962611;28;20212;-75
2023/06/07 03:35:56;;;;;;;4.53;4.13;;;;;16.50;96811.00;;;;4964919;28;20207;-75
2023/06/07 03:38:45;;;;;;;6.40;4.00;;;;;16.40;96816.00;;;;4972606;28;20265;-75
2023/06/07 03:41:35;;;;;;;6.47;4.17;;;;;16.60;96813.00;;;;4967772;28;20223;-75
2023/06/07 03:44:24;;;;;;;7.03;4.40;;;;;16.60;96820.00;;;;4967766;28;20210;-75
2023/06/07 03:47:13;;;;;;;7.00;4.30;;;;;16.70;96827.00;;;;4962549;28;20204;-75
2023/06/07 03:50:03;;;;;;;5.83;4.97;;;;;16.60;96826.00;;;;4969605;28;20238;-75
2023/06/07 03:52:52;;;;;;;5.90;5.10;;;;;16.80;96824.00;;;;4972131;28;20262;-75
2023/06/07 03:55:42;;;;;;;8.63;5.37;;;;;16.80;96826.00;;;;4959518;28;20203;-75
2023/06/07 03:58:33;;;;;;;9.67;5.80;;;;;16.80;96830.00;;;;4973500;28;20583;-74
2023/06/07 04:01:25;;;;;;;6.07;5.30;;;;;16.80;96831.00;;;;4967245;28;20227;-75
2023/06/07 04:04:14;;;;;;;6.33;5.73;;;;;16.90;96835.00;;;;4962944;28;20208;-74
2023/06/07 04:07:03;;;;;;;6.73;5.80;;;;;16.50;96835.00;;;;4962803;28;20207;-74
2023/06/07 04:09:52;;;;;;;6.07;5.53;;;;;16.50;96837.00;;;;4970883;28;20612;-75
2023/06/07 04:12:44;;;;;;;7.70;5.30;;;;;16.60;96837.00;;;;4962285;28;20218;-75
2023/06/07 04:15:34;;;;;;;8.73;6.37;;;;;16.70;96837.00;;;;4967713;28;20267;-74
2023/06/07 04:18:23;;;;;;;6.90;5.67;;;;;16.40;96839.00;;;;4965945;28;20214;-74
2023/06/07 04:21:13;;;;;;;7.07;5.37;;;;;16.50;96838.00;;;;4973804;28;20226;-75
2023/06/07 04:24:04;;;;;;;7.50;6.33;;;;;16.50;96841.00;;;;4967389;28;20695;-74
2023/06/07 04:26:53;;;;;;;5.60;4.87;;;;;16.20;96845.00;;;;4969013;28;20199;-74
2023/06/07 04:29:42;;;;;;;6.57;5.50;;;;;16.40;96846.00;;;;4970269;28;20223;-74
2023/06/07 04:32:33;;;;;;;5.60;5.10;;;;;16.40;96848.00;;;;4967703;28;20199;-74
2023/06/07 04:35:23;;;;;;;7.37;4.87;;;;;16.40;96845.00;;;;4971816;28;20203;-74
2023/06/07 04:38:12;;;;;;;5.73;5.13;;;;;16.50;96843.00;;;;4965534;28;20203;-74
2023/06/07 04:41:06;;;;;;;8.47;4.73;;;;;16.20;96844.00;;;;4963902;28;20227;-74
2023/06/07 04:43:55;;;;;;;6.60;5.33;;;;;16.30;96849.00;;;;4970468;28;20294;-74
2023/06/07 04:46:45;;;;;;;5.27;4.77;;;;;16.40;96853.00;;;;4963169;28;20204;-74
2023/06/07 04:49:35;;;;;;;5.27;4.77;;;;;16.40;96848.00;;;;4966040;28;20215;-74
2023/06/07 04:52:25;;;;;;;5.40;4.77;;;;;16.40;96848.00;;;;4962606;28;20593;-74
2023/06/07 04:55:16;;;;;;;5.83;5.23;;;;;16.10;96852.00;;;;4960484;28;20222;-73
2023/06/07 04:58:05;;;;;;;6.47;5.50;;;;;16.20;96859.00;;;;4962338;28;20673;-74
2023/06/07 05:00:56;;;;;;;5.60;5.10;;;;;16.70;96854.00;;;;4963697;28;20219;-74
2023/06/07 05:03:45;;;;;;;5.93;5.20;;;;;17.00;96860.00;;;;4968112;28;20230;-74
2023/06/07 05:06:37;;;;;;;8.27;6.73;;;;;17.10;96859.00;;;;4961978;28;20210;-74
2023/06/07 05:09:26;;;;;;;8.67;5.50;;;;;17.30;96856.00;;;;4958201;28;20219;-74
2023/06/07 05:12:17;;;;;;;5.47;4.87;;;;;17.50;96853.00;;;;4960259;28;20262;-74
2023/06/07 05:15:07;;;;;;;5.73;5.07;;;;;17.70;96861.00;;;;4958634;28;20208;-74
2023/06/07 05:17:56;;;;;;;10.47;6.53;;;;;18.00;96863.00;;;;4958832;28;20204;-75
2023/06/07 05:20:46;;;;;;;6.27;5.13;;;;;18.10;96863.00;;;;4963375;28;20240;-74
2023/06/07 05:23:37;;;;;;;7.43;5.30;;;;;18.20;96859.00;;;;4956533;28;20254;-74
2023/06/07 05:26:26;;;;;;;12.60;5.30;;;;;18.30;96870.00;;;;4962158;28;20211;-75
2023/06/07 05:29:15;;;;;;;8.67;4.90;;;;;18.50;96861.00;;;;4970838;28;20615;-75
2023/06/07 05:32:05;;;;;;;9.07;5.50;;;;;18.50;96871.00;;;;4966146;28;20214;-74
2023/06/07 05:34:54;;;;;;;5.67;5.17;;;;;18.20;96867.00;;;;4965776;28;20207;-74
2023/06/07 05:37:44;;;;;;;5.27;4.77;;;;;18.00;96861.00;;;;4964755;28;20229;-75
2023/06/07 05:40:34;;;;;;;6.07;4.87;;;;;18.10;96865.00;;;;4958149;28;20227;-74
2023/06/07 05:43:23;;;;;;;5.50;5.00;;;;;18.00;96861.00;;;;4969335;28;20247;-74
2023/06/07 05:46:12;;;;;;;6.03;4.67;;;;;18.10;96867.00;;;;4970134;28;20214;-75
2023/06/07 05:49:01;;;;;;;6.93;4.70;;;;;18.30;96856.00;;;;4963538;28;20238;-75
2023/06/07 05:51:51;;;;;;;7.27;4.70;;;;;18.10;96861.00;;;;4967445;28;20846;-75
2023/06/07 05:54:40;;;;;;;5.67;5.07;;;;;18.40;96870.00;;;;4963140;28;20215;-75
2023/06/07 05:57:31;;;;;;;5.67;5.17;;;;;18.40;96867.00;;;;4964309;28;20249;-75
2023/06/07 06:00:21;;;;;;;10.00;5.97;;;;;18.30;96872.00;;;;4965965;28;20242;-75
2023/06/07 06:03:10;;;;;;;8.50;6.17;;;;;18.80;96866.00;;;;4964065;28;20219;-76
2023/06/07 06:05:59;;;;;;;6.57;5.70;;;;;18.70;96871.00;;;;4959900;28;20204;-75
2023/06/07 06:08:48;;;;;;;6.50;4.90;;;;;18.90;96865.00;;;;4966225;28;20219;-75
2023/06/07 06:11:37;;;;;;;5.83;5.23;;;;;19.10;96863.00;;;;4969491;28;20202;-76
2023/06/07 06:14:28;;;;;;;8.77;5.93;;;;;19.00;96860.00;;;;4967289;28;20672;-75
2023/06/07 06:17:17;;;;;;;7.20;5.67;;;;;18.80;96860.00;;;;4969032;28;20700;-75
2023/06/07 06:20:08;;;;;;;7.83;6.80;;;;;18.60;96861.00;;;;4980245;28;20238;-75
2023/06/07 06:22:57;;;;;;;7.03;5.67;;;;;18.70;96859.00;;;;4982297;28;20721;-75
2023/06/07 06:25:46;;;;;;;6.47;5.77;;;;;18.90;96859.00;;;;4981133;28;20202;-75
2023/06/07 06:28:35;;;;;;;5.90;5.30;;;;;18.90;96856.00;;;;4979879;28;20609;-75
2023/06/07 06:31:26;;;;;;;7.97;6.17;;;;;19.10;96860.00;;;;4977248;28;20562;-76
2023/06/07 06:34:15;;;;;;;6.33;5.83;;;;;19.30;96861.00;;;;4965270;28;20219;-74
2023/06/07 06:37:05;;;;;;;8.30;6.50;;;;;19.20;96864.00;;;;4979871;28;20214;-74
2023/06/07 06:39:55;;;;;;;9.10;7.80;;;;;19.70;96846.00;;;;4975866;28;20235;-74
2023/06/07 06:42:44;;;;;;;8.90;8.00;;;;;19.70;96853.00;;;;4966646;28;20705;-74
2023/06/07 06:45:33;;;;;;;9.07;8.27;;;;;19.60;96863.00;;;;4971242;28;20207;-74
2023/06/07 06:48:23;;;;;;;9.77;8.83;;;;;19.90;96868.00;;;;4959181;28;20366;-74
2023/06/07 06:51:12;;;;;;;11.87;8.33;;;;;19.70;96870.00;;;;4970367;28;20218;-75
2023/06/07 06:54:01;;;;;;;9.93;9.00;;;;;20.50;96865.00;;;;4967869;28;20214;-76
2023/06/07 06:56:51;;;;;;;10.00;8.90;;;;;20.50;96871.00;;;;4973439;28;20211;-75
2023/06/07 06:59:40;;;;;;;10.03;9.00;;;;;20.50;96872.00;;;;4965954;28;20223;-74
2023/06/07 07:02:29;;;;;;;12.40;8.80;;;;;21.00;96864.00;;;;4970626;28;20223;-74
2023/06/07 07:05:20;;;;;;;10.50;8.83;;;;;21.20;96871.00;;;;4967459;28;20261;-74
2023/06/07 07:08:09;;;;;;;9.50;8.17;;;;;20.80;96870.00;;;;4969726;28;20207;-74
2023/06/07 07:10:58;;;;;;;9.93;8.87;;;;;21.30;96884.00;;;;4971113;28;20203;-75
2023/06/07 07:13:47;;;;;;;10.77;8.97;;;;;21.50;96871.00;;;;4972402;28;20199;-75
2023/06/07 07:16:36;;;;;;;10.07;8.40;;;;;21.50;96870.00;;;;4978526;28;20211;-75
2023/06/07 07:19:26;;;;;;;9.63;8.63;;;;;21.50;96878.00;;;;4969918;28;20242;-75
2023/06/07 07:22:17;;;;;;;10.67;8.07;;;;;21.50;96872.00;;;;4971257;28;20230;-75
2023/06/07 07:25:07;;;;;;;9.13;8.23;;;;;21.60;96872.00;;;;4971352;28;20266;-74
2023/06/07 07:27:56;;;;;;;10.90;9.33;;;;;21.80;96873.00;;;;4969820;28;20234;-74
2023/06/07 07:30:45;;;;;;;11.50;8.53;;;;;21.90;96879.00;;;;4961740;28;20239;-75
2023/06/07 07:33:34;;;;;;;10.07;7.50;;;;;22.20;96877.00;;;;4967539;28;20231;-76
2023/06/07 07:36:27;;;;;;;10.27;9.27;;;;;22.20;96875.00;;;;4966908;28;20218;-74
2023/06/07 07:39:18;;;;;;;9.23;7.40;;;;;22.10;96873.00;;;;4966564;28;20271;-75
2023/06/07 07:42:08;;;;;;;10.73;8.10;;;;;22.30;96876.00;;;;4972226;28;20207;-74
2023/06/07 07:44:57;;;;;;;10.50;8.33;;;;;22.20;96881.00;;;;4968697;28;20214;-75
2023/06/07 07:47:46;;;;;;;8.07;6.97;;;;;22.20;96885.00;;;;4971646;28;20211;-75
2023/06/07 07:50:38;;;;;;;8.77;7.97;;;;;22.20;96888.00;;;;4971164;28;20223;-76
2023/06/07 07:53:27;;;;;;;6.70;6.10;;;;;22.10;96881.00;;;;4968261;28;20199;-74
2023/06/07 07:56:17;;;;;;;7.50;6.73;;;;;22.00;96880.00;;;;4971792;28;20212;-75
2023/06/07 07:59:06;;;;;;;7.77;7.00;;;;;22.20;96890.00;;;;4969946;28;20237;-75
2023/06/07 08:01:55;;;;;;;7.47;6.50;;;;;21.80;96887.00;;;;4972190;28;20692;-74
2023/06/07 08:04:45;;;;;;;9.87;7.30;;;;;22.20;96879.00;;;;4970669;28;20206;-75
2023/06/07 08:07:34;;;;;;;6.40;5.80;;;;;22.30;96882.00;;;;4966371;28;20695;-75
2023/06/07 08:10:24;;;;;;;8.87;6.40;;;;;22.60;96880.00;;;;4968220;28;20238;-75
2023/06/07 08:13:15;;;;;;;8.20;7.40;;;;;22.70;96884.00;;;;4956523;28;20208;-75
2023/06/07 08:16:04;;;;;;;8.53;6.87;;;;;22.60;96886.00;;;;4959530;28;20211;-75
2023/06/07 08:18:57;;;;;;;7.70;6.80;;;;;22.70;96876.00;;;;4971940;28;20622;-75
2023/06/07 08:21:47;;;;;;;7.83;6.50;;;;;23.10;96871.00;;;;4971234;28;20711;-75
2023/06/07 08:24:36;;;;;;;8.03;7.23;;;;;23.30;96888.00;;;;4970561;28;20227;-75
2023/06/07 08:27:26;;;;;;;9.53;6.87;;;;;23.40;96881.00;;;;4971156;28;20692;-75
2023/06/07 08:30:17;;;;;;;8.43;7.40;;;;;23.60;96882.00;;;;4968863;28;20231;-76
2023/06/07 08:33:06;;;;;;;8.57;6.20;;;;;23.70;96887.00;;;;4966977;28;20657;-75
2023/06/07 08:35:55;;;;;;;7.30;6.70;;;;;23.90;96882.00;;;;4950176;28;20208;-75
2023/06/07 08:38:45;;;;;;;7.70;5.87;;;;;24.20;96882.00;;;;4955502;28;20263;-75
2023/06/07 08:41:34;;;;;;;7.33;6.53;;;;;24.00;96881.00;;;;4964759;28;20196;-76
2023/06/07 08:44:23;;;;;;;6.80;5.93;;;;;24.30;96880.00;;;;4968284;28;20241;-75
2023/06/07 08:47:14;;;;;;;9.23;6.03;;;;;24.40;96876.00;;;;4967045;28;20206;-75
2023/06/07 08:50:04;;;;;;;12.97;8.33;;;;;24.20;96879.00;;;;4962578;28;20231;-75
2023/06/07 08:52:55;;;;;;;7.70;6.77;;;;;24.30;96877.00;;;;4970431;28;20199;-75
2023/06/07 08:55:45;;;;;;;5.87;5.20;;;;;24.70;96882.00;;;;4965518;28;20207;-75
2023/06/07 08:58:34;;;;;;;7.17;6.33;;;;;24.70;96873.00;;;;4968566;28;20196;-75
2023/06/07 09:01:24;;;;;;;5.70;5.10;;;;;25.20;96873.00;;;;4964906;28;20222;-75
2023/06/07 09:04:15;;;;;;;5.93;5.37;;;;;25.00;96876.00;;;;4969241;28;20596;-75
2023/06/07 09:07:06;;;;;;;6.10;5.03;;;;;25.00;96874.00;;;;4969418;28;20677;-74
2023/06/07 09:09:56;;;;;;;8.07;5.97;;;;;24.70;96872.00;;;;4965336;28;20231;-74
2023/06/07 09:12:46;;;;;;;5.97;4.67;;;;;24.90;96869.00;;;;4967679;28;20587;-75
2023/06/07 09:15:35;;;;;;;8.67;4.97;;;;;25.70;96871.00;;;;4977113;28;20202;-75
2023/06/07 09:18:25;;;;;;;9.20;5.07;;;;;25.60;96868.00;;;;4976834;28;20213;-75
2023/06/07 09:21:22;;;;;;;6.25;4.45;;;;;24.90;96869.00;;;;4968008;28;20249;-75
2023/06/07 09:24:11;;;;;;;4.13;3.53;;;;;24.10;96859.00;;;;4973428;28;20509;-74
2023/06/07 09:27:02;;;;;;;5.23;4.57;;;;;25.00;96863.00;;;;4966622;28;20203;-74
2023/06/07 09:29:51;;;;;;;5.67;5.17;;;;;25.50;96860.00;;;;4973220;28;20715;-74
2023/06/07 09:32:40;;;;;;;4.77;4.37;;;;;26.10;96851.00;;;;4971715;28;20211;-74
2023/06/07 09:35:30;;;;;;;4.53;3.87;;;;;25.50;96855.00;;;;4955834;28;20250;-74
2023/06/07 09:38:27;;;;;;;5.57;4.73;;;;;25.30;96863.00;;;;4954458;28;20215;-74
2023/06/07 09:41:16;;;;;;;4.50;3.90;;;;;26.00;96857.00;;;;4961513;28;20211;-73
2023/06/07 09:44:05;;;;;;;5.30;4.40;;;;;25.20;96856.00;;;;4958321;28;20228;-73
2023/06/07 09:46:55;;;;;;;4.77;4.17;;;;;25.90;96843.00;;;;4964889;28;20718;-74
2023/06/07 09:49:44;;;;;;;4.70;4.30;;;;;25.80;96843.00;;;;4958319;28;20223;-75
2023/06/07 09:52:33;;;;;;;5.53;3.83;;;;;26.40;96842.00;;;;4959084;28;20746;-74
2023/06/07 09:55:28;;;;;;;6.73;4.77;;;;;25.90;96832.00;;;;4960106;28;20236;-74
2023/06/07 09:58:22;;;;;;;6.07;4.50;;;;;26.30;96833.00;;;;4958076;28;20208;-73
2023/06/07 10:01:11;;;;;;;5.80;4.67;;;;;25.70;96838.00;;;;4963937;28;20250;-75
2023/06/07 10:04:02;;;;;;;5.63;4.77;;;;;25.20;96842.00;;;;4956867;28;20228;-72
2023/06/07 10:06:54;;;;;;;4.87;4.47;;;;;26.10;96845.00;;;;4954646;28;20861;-73
2023/06/07 10:09:45;;;;;;;7.17;5.03;;;;;26.90;96848.00;;;;4955050;28;20230;-73
2023/06/07 10:12:38;;;;;;;5.40;4.90;;;;;26.80;96849.00;;;;4958831;28;20206;-74
2023/06/07 10:15:29;;;;;;;5.20;4.47;;;;;26.80;96846.00;;;;4957489;28;20766;-73
2023/06/07 10:18:21;;;;;;;8.10;5.90;;;;;26.00;96840.00;;;;4960844;28;20204;-73
2023/06/07 10:21:16;;;;;;;6.00;4.67;;;;;25.70;96831.00;;;;4960672;28;20577;-73
2023/06/07 10:24:11;;;;;;;6.90;4.10;;;;;25.90;96809.00;;;;4964177;28;20609;-74
2023/06/07 10:27:08;;;;;;;5.83;4.30;;;;;26.00;96802.00;;;;4960107;28;20213;-74
2023/06/07 10:30:03;;;;;;;9.67;4.53;;;;;27.30;96794.00;;;;4957458;28;20288;-74
2023/06/07 10:32:53;;;;;;;6.40;4.20;;;;;28.10;96822.00;;;;4954846;28;20209;-74
2023/06/07 10:35:42;;;;;;;4.53;4.13;;;;;28.70;96831.00;;;;4958354;28;20216;-74
2023/06/07 10:38:31;;;;;;;4.73;4.33;;;;;28.70;96795.00;;;;4959737;28;20349;-74
2023/06/07 10:41:20;;;;;;;4.83;3.83;;;;;28.80;96834.00;;;;4954270;28;20293;-73
2023/06/07 10:44:10;;;;;;;5.30;4.80;;;;;28.60;96829.00;;;;4955955;28;20254;-74
2023/06/07 10:47:26;;;;;;;4.93;4.40;;;;;28.40;96826.00;;;;4962906;28;20725;-74
2023/06/07 10:50:54;;;;;;;4.70;4.30;;;;;27.30;96838.00;;;;4958680;28;20236;-73
2023/06/07 10:53:53;;;;;;;6.33;4.53;;;;;26.60;96833.00;;;;4953182;28;20226;-74
2023/06/07 10:56:42;;;;;;;4.63;4.23;;;;;27.10;96836.00;;;;4961147;28;20683;-74
2023/06/07 10:59:31;;;;;;;4.43;4.03;;;;;26.90;96837.00;;;;4960731;28;20600;-74
2023/06/07 11:02:21;;;;;;;5.03;4.57;;;;;27.10;96834.00;;;;4949797;28;20222;-73
2023/06/07 11:05:13;;;;;;;5.23;4.50;;;;;26.90;96837.00;;;;4956592;28;20274;-75
2023/06/07 11:08:23;;;;;;;4.57;4.17;;;;;27.20;96837.00;;;;4964081;28;20212;-75
2023/06/07 11:11:45;;;;;;;5.00;4.60;;;;;26.60;96833.00;;;;4968074;28;20209;-76
2023/06/07 11:14:34;;;;;;;3.80;3.50;;;;;26.30;96828.00;;;;4909436;29;20204;-76
2023/06/07 11:17:50;;;;;;;4.63;4.27;;;;;27.00;96829.00;;;;4969472;28;20212;-75
2023/06/07 11:20:51;;;;;;;4.60;4.20;;;;;26.90;96827.00;;;;4962273;28;20951;-75
2023/06/07 11:23:41;;;;;;;5.93;4.30;;;;;26.90;96828.00;;;;4976842;28;20209;-76
2023/06/07 11:26:36;;;;;;;4.43;4.03;;;;;26.20;96821.00;;;;4978170;28;20266;-75
2023/06/07 11:29:25;;;;;;;4.47;3.93;;;;;25.40;96823.00;;;;4979057;28;20223;-74
2023/06/07 11:32:14;;;;;;;4.33;3.90;;;;;25.60;96820.00;;;;4978046;28;20239;-75
2023/06/07 11:35:03;;;;;;;4.70;4.30;;;;;26.60;96827.00;;;;4981312;28;20206;-74
2023/06/07 11:37:54;;;;;;;4.47;4.07;;;;;27.00;96838.00;;;;4982175;28;20217;-75
2023/06/07 11:40:43;;;;;;;5.17;4.50;;;;;27.20;96823.00;;;;4981741;28;20216;-74
2023/06/07 11:43:33;;;;;;;4.37;3.80;;;;;27.30;96826.00;;;;4978979;28;20213;-75
2023/06/07 11:46:22;;;;;;;4.33;3.93;;;;;27.00;96824.00;;;;4982553;28;20858;-75
2023/06/07 11:49:11;;;;;;;3.40;3.10;;;;;26.60;96824.00;;;;4982336;28;20714;-75
2023/06/07 11:52:00;;;;;;;4.03;3.23;;;;;27.20;96817.00;;;;4982146;28;20205;-75
2023/06/07 11:54:51;;;;;;;3.97;3.57;;;;;27.90;96815.00;;;;4980776;28;20197;-75
2023/06/07 11:57:41;;;;;;;3.93;3.13;;;;;28.40;96788.00;;;;4980372;28;20207;-75
2023/06/07 12:00:32;;;;;;;2.90;2.70;;;;;28.70;96795.00;;;;4977195;28;20226;-75
2023/06/07 12:03:22;;;;;;;2.90;2.70;;;;;28.80;96785.00;;;;4974121;28;20209;-75
2023/06/07 12:06:11;;;;;;;2.83;2.60;;;;;29.00;96776.00;;;;4978825;28;20795;-75
2023/06/07 12:09:00;;;;;;;3.47;2.87;;;;;29.60;96769.00;;;;4980204;28;20225;-75
2023/06/07 12:11:53;;;;;;;3.53;3.10;;;;;29.00;96755.00;;;;4977749;28;20209;-75
2023/06/07 12:14:42;;;;;;;3.63;3.27;;;;;30.50;96769.00;;;;4980715;28;20210;-75
2023/06/07 12:17:34;;;;;;;4.80;3.10;;;;;30.10;96776.00;;;;4981043;28;20213;-75
2023/06/07 12:20:25;;;;;;;3.50;2.90;;;;;30.70;96742.00;;;;4979059;28;20277;-75
2023/06/07 12:23:15;;;;;;;4.07;3.40;;;;;30.40;96788.00;;;;4973186;28;20206;-76
2023/06/07 12:26:08;;;;;;;2.73;2.53;;;;;29.70;96788.00;;;;4970309;28;20233;-75
2023/06/07 12:29:03;;;;;;;2.77;2.57;;;;;29.00;96783.00;;;;4975824;28;20262;-75
2023/06/07 12:31:52;;;;;;;3.50;2.07;;;;;29.30;96785.00;;;;4970763;28;20215;-75
2023/06/07 12:34:45;;;;;;;2.50;2.30;;;;;28.90;96793.00;;;;4968082;28;20219;-75
2023/06/07 12:37:35;;;;;;;2.10;1.90;;;;;28.90;96783.00;;;;4955192;28;20210;-75
2023/06/07 12:40:24;;;;;;;1.93;1.80;;;;;29.20;96781.00;;;;4961452;28;20230;-75
2023/06/07 12:43:14;;;;;;;1.50;1.40;;;;;29.30;96776.00;;;;4962848;28;20240;-76
2023/06/07 12:46:05;;;;;;;2.23;1.70;;;;;29.70;96770.00;;;;4957109;28;20239;-76
2023/06/07 12:48:54;;;;;;;1.77;1.57;;;;;29.80;96776.00;;;;4968893;28;20248;-76
2023/06/07 12:51:43;;;;;;;2.07;1.90;;;;;29.40;96786.00;;;;4963692;28;20215;-76
2023/06/07 12:54:32;;;;;;;1.40;1.30;;;;;28.70;96784.00;;;;4968722;28;20210;-75
2023/06/07 12:57:21;;;;;;;3.23;1.70;;;;;28.60;96782.00;;;;4969857;28;20598;-75
2023/06/07 13:00:11;;;;;;;1.37;1.27;;;;;29.00;96771.00;;;;4967630;28;20225;-76
2023/06/07 13:03:02;;;;;;;1.93;1.43;;;;;28.70;96770.00;;;;4966173;28;20223;-76
2023/06/07 13:05:51;;;;;;;2.30;1.63;;;;;29.00;96755.00;;;;4960140;28;21062;-76
2023/06/07 13:08:42;;;;;;;3.43;1.90;;;;;29.50;96771.00;;;;4961468;28;20205;-76
2023/06/07 13:11:32;;;;;;;1.43;1.33;;;;;29.60;96766.00;;;;4968003;28;20209;-76
2023/06/07 13:14:21;;;;;;;2.50;2.30;;;;;29.90;96758.00;;;;4959806;28;20217;-77
2023/06/07 13:17:10;;;;;;;1.63;1.53;;;;;29.30;96751.00;;;;4962921;28;20205;-75
2023/06/07 13:20:01;;;;;;;2.63;1.60;;;;;30.00;96749.00;;;;4967975;28;20240;-75
2023/06/07 13:22:50;;;;;;;1.40;1.30;;;;;30.30;96761.00;;;;4972391;28;20200;-76
2023/06/07 13:25:39;;;;;;;1.70;1.60;;;;;29.90;96760.00;;;;4972420;28;20252;-76
2023/06/07 13:28:28;;;;;;;2.40;1.40;;;;;29.40;96768.00;;;;4969952;28;20241;-76
2023/06/07 13:31:17;;;;;;;1.93;1.83;;;;;28.80;96766.00;;;;4970375;28;20205;-76
2023/06/07 13:34:07;;;;;;;2.17;1.27;;;;;28.10;96764.00;;;;4953541;28;20205;-76
2023/06/07 13:36:59;;;;;;;1.90;1.73;;;;;28.30;96761.00;;;;4971965;28;20216;-76
2023/06/07 13:39:48;;;;;;;4.13;2.33;;;;;28.10;96769.00;;;;4965404;28;20233;-76
2023/06/07 13:42:37;;;;;;;2.30;1.87;;;;;28.20;96763.00;;;;4971630;28;20211;-76
2023/06/07 13:45:27;;;;;;;2.80;1.97;;;;;28.20;96762.00;;;;4972129;28;20835;-76
2023/06/07 13:48:16;;;;;;;2.30;2.10;;;;;28.40;96750.00;;;;4963892;28;20934;-75
2023/06/07 13:51:05;;;;;;;4.90;2.20;;;;;29.10;96739.00;;;;4969838;28;20205;-75
2023/06/07 13:53:56;;;;;;;2.53;2.33;;;;;29.40;96729.00;;;;4969935;28;20201;-75
2023/06/07 13:56:45;;;;;;;2.50;2.30;;;;;29.70;96721.00;;;;4969659;28;20259;-75
2023/06/07 13:59:34;;;;;;;2.33;2.07;;;;;30.40;96698.00;;;;4968267;28;20225;-76
2023/06/07 14:02:23;;;;;;;3.73;2.37;;;;;32.00;96701.00;;;;4965838;28;20211;-76
2023/06/07 14:05:13;;;;;;;2.05;1.95;;;;;33.20;96701.00;;;;4965955;28;20628;-76
2023/06/07 14:08:02;;;;;;;;;;;;;33.30;96706.00;;;;4969598;28;20215;-76
2023/06/07 14:10:52;;;;;;;;;;;;;33.20;96746.00;;;;4965977;28;19929;-76
2023/06/07 14:13:43;;;;;;;;;;;;;32.60;96705.00;;;;4968163;28;20389;-76
2023/06/07 14:16:32;;;;;;;;;;;;;32.20;96753.00;;;;4965327;28;19929;-74
2023/06/07 14:19:20;;;;;;;;;;;;;31.10;96760.00;;;;4958164;28;20718;-74
2023/06/07 14:22:09;;;;;;;2.03;1.83;;;;;29.80;96769.00;;;;4944855;28;20375;-77
2023/06/07 14:24:58;;;;;;;2.40;2.10;;;;;29.60;96761.00;;;;4952882;28;20104;-74
2023/06/07 14:27:49;;;;;;;2.20;2.00;;;;;29.20;96760.00;;;;4949748;28;20750;-76
2023/06/07 14:30:38;;;;;;;2.03;1.92;;;;;29.10;96761.00;;;;4944577;28;20232;-75